Time;durP1;ratioP1;P1;durP2;ratioP2;P2;SDS_P1;SDS_P2;PMS_P1;PMS_P2;Temp;Humidity;BMP_temperature;BMP_pressure;BME280_temperature;BME280_humidity;BME280_pressure;Samples;Min_cycle;Max_cycle;Signal;HPM_P1;HPM_P2
2023/06/28 00:00:23;;;;;;;1.20;1.20;;;13.80;99.90;;;;;;5114857;27;20039;-85
2023/06/28 00:02:49;;;;;;;1.20;1.20;;;13.80;99.90;;;;;;5116545;27;20043;-85
2023/06/28 00:05:15;;;;;;;1.50;1.40;;;13.80;99.90;;;;;;5122990;27;20440;-84
2023/06/28 00:07:40;;;;;;;1.23;1.23;;;13.80;99.90;;;;;;5122981;27;20049;-85
2023/06/28 00:10:06;;;;;;;1.30;1.30;;;13.90;99.90;;;;;;5101617;27;20051;-85
2023/06/28 00:12:33;;;;;;;1.20;1.20;;;13.90;99.90;;;;;;5119163;27;20180;-85
2023/06/28 00:14:59;;;;;;;1.20;1.20;;;14.00;99.90;;;;;;5109565;27;20046;-86
2023/06/28 00:17:28;;;;;;;1.30;1.30;;;13.90;99.90;;;;;;5126904;27;20039;-86
2023/06/28 00:20:10;;;;;;;1.20;1.20;;;13.90;99.90;;;;;;5116310;27;20046;-85
2023/06/28 00:22:36;;;;;;;1.20;1.20;;;14.00;99.90;;;;;;5121167;27;20058;-86
2023/06/28 00:25:04;;;;;;;1.20;1.20;;;13.90;99.90;;;;;;5124141;27;20054;-85
2023/06/28 00:27:32;;;;;;;1.20;1.20;;;14.00;99.90;;;;;;5100931;27;20051;-86
2023/06/28 00:29:58;;;;;;;1.20;1.20;;;14.00;99.90;;;;;;5117894;27;20049;-85
2023/06/28 00:32:25;;;;;;;1.20;1.20;;;14.00;99.90;;;;;;5118254;27;21585;-86
2023/06/28 00:34:51;;;;;;;1.30;1.30;;;13.90;99.90;;;;;;5116818;27;20122;-84
2023/06/28 00:37:17;;;;;;;1.10;1.10;;;14.00;99.90;;;;;;5120971;27;20108;-85
2023/06/28 00:39:43;;;;;;;1.10;1.10;;;14.00;99.90;;;;;;5116890;27;20039;-84
2023/06/28 00:42:09;;;;;;;1.20;1.20;;;14.00;99.90;;;;;;5119942;27;20051;-85
2023/06/28 00:44:35;;;;;;;1.15;1.15;;;14.00;99.90;;;;;;5118053;27;20725;-85
2023/06/28 00:47:02;;;;;;;1.20;1.20;;;14.00;99.90;;;;;;5121297;27;20107;-85
2023/06/28 00:49:31;;;;;;;1.30;1.30;;;14.10;99.90;;;;;;5119660;27;20043;-85
2023/06/28 00:51:58;;;;;;;1.40;1.40;;;14.10;99.90;;;;;;5118911;27;20051;-86
2023/06/28 00:54:24;;;;;;;1.52;1.45;;;14.10;99.90;;;;;;5122669;27;20103;-85
2023/06/28 00:56:50;;;;;;;1.50;1.40;;;14.10;99.90;;;;;;5113210;27;20047;-85
2023/06/28 00:59:16;;;;;;;1.73;1.63;;;14.00;99.90;;;;;;5114388;27;20070;-85
2023/06/28 01:01:42;;;;;;;1.75;1.65;;;14.00;99.90;;;;;;5115516;27;20135;-85
2023/06/28 01:04:09;;;;;;;1.85;1.75;;;14.00;99.90;;;;;;5117957;27;20122;-85
2023/06/28 01:06:37;;;;;;;1.88;1.77;;;14.00;99.90;;;;;;5117761;27;20046;-85
2023/06/28 01:09:11;;;;;;;1.85;1.75;;;14.00;99.90;;;;;;5122488;27;20046;-86
2023/06/28 01:11:37;;;;;;;1.90;1.80;;;14.10;99.90;;;;;;5114886;27;20043;-85
2023/06/28 01:14:04;;;;;;;1.83;1.73;;;14.10;99.90;;;;;;5122244;27;20444;-85
2023/06/28 01:16:30;;;;;;;1.90;1.80;;;14.10;99.90;;;;;;5125555;27;20034;-86
2023/06/28 01:18:56;;;;;;;1.90;1.80;;;14.00;99.90;;;;;;5103500;27;20121;-85
2023/06/28 01:21:28;;;;;;;1.77;1.67;;;13.90;99.90;;;;;;5124677;27;20130;-86
2023/06/28 01:23:54;;;;;;;1.80;1.70;;;13.80;99.90;;;;;;5120288;27;20039;-86
2023/06/28 01:26:20;;;;;;;2.03;1.92;;;13.80;99.90;;;;;;5120873;27;20407;-86
2023/06/28 01:28:46;;;;;;;2.17;2.08;;;13.80;99.90;;;;;;5108983;27;20492;-85
2023/06/28 01:31:12;;;;;;;2.13;2.03;;;13.80;99.90;;;;;;5120096;27;20624;-86
2023/06/28 01:33:41;;;;;;;2.20;2.10;;;13.80;99.90;;;;;;5120653;27;20043;-86
2023/06/28 01:36:07;;;;;;;2.05;1.95;;;13.80;99.90;;;;;;5115824;27;20043;-87
2023/06/28 01:38:34;;;;;;;2.20;2.10;;;13.80;99.90;;;;;;5118997;27;20062;-86
2023/06/28 01:40:59;;;;;;;2.08;1.98;;;13.70;99.90;;;;;;5100577;27;20047;-86
2023/06/28 01:43:25;;;;;;;2.10;2.00;;;13.80;99.90;;;;;;5119225;27;20385;-86
2023/06/28 01:45:52;;;;;;;2.17;2.08;;;13.80;99.90;;;;;;5120120;27;20042;-86
2023/06/28 01:48:18;;;;;;;2.08;1.98;;;13.80;99.90;;;;;;5115815;27;20178;-86
2023/06/28 01:50:45;;;;;;;2.20;2.10;;;13.80;99.90;;;;;;5116654;27;20153;-86
2023/06/28 01:53:10;;;;;;;2.20;2.10;;;13.60;99.90;;;;;;5119565;27;20042;-85
2023/06/28 01:55:36;;;;;;;2.05;1.95;;;13.60;99.90;;;;;;5120870;27;20058;-85
2023/06/28 01:58:02;;;;;;;2.08;1.98;;;13.50;99.90;;;;;;5122217;27;20048;-86
2023/06/28 02:00:28;;;;;;;2.05;1.95;;;13.50;99.90;;;;;;5130026;27;21578;-87
2023/06/28 02:02:53;;;;;;;2.15;2.05;;;13.50;99.90;;;;;;5124818;27;20043;-85
2023/06/28 02:05:20;;;;;;;2.15;2.05;;;13.50;99.90;;;;;;5116855;27;20051;-86
2023/06/28 02:07:46;;;;;;;2.22;2.13;;;13.50;99.90;;;;;;5119889;27;20419;-86
2023/06/28 02:10:11;;;;;;;2.40;2.30;;;13.40;99.90;;;;;;5126383;27;20046;-86
2023/06/28 02:12:37;;;;;;;2.30;2.20;;;13.30;99.90;;;;;;5119417;27;20669;-85
2023/06/28 02:15:04;;;;;;;2.35;2.25;;;13.40;99.90;;;;;;5122866;27;20050;-85
2023/06/28 02:17:30;;;;;;;2.60;2.50;;;13.50;99.90;;;;;;5124466;27;20389;-85
2023/06/28 02:19:57;;;;;;;2.50;2.40;;;13.50;99.90;;;;;;5124055;27;20047;-85
2023/06/28 02:22:23;;;;;;;2.40;2.30;;;13.50;99.90;;;;;;5129937;27;20047;-85
2023/06/28 02:24:48;;;;;;;2.50;2.40;;;13.50;99.90;;;;;;5123213;27;20051;-86
2023/06/28 02:27:14;;;;;;;2.80;2.60;;;13.50;99.90;;;;;;5126250;27;20058;-85
2023/06/28 02:29:40;;;;;;;2.40;2.30;;;13.40;99.90;;;;;;5119595;27;20073;-85
2023/06/28 02:32:06;;;;;;;2.50;2.40;;;13.40;99.90;;;;;;5103873;27;20497;-85
2023/06/28 02:34:31;;;;;;;2.50;2.40;;;13.40;99.90;;;;;;5124442;27;20494;-85
2023/06/28 02:36:57;;;;;;;2.58;2.47;;;13.40;99.90;;;;;;5119804;27;20801;-85
2023/06/28 02:39:23;;;;;;;2.60;2.50;;;13.40;99.90;;;;;;5131999;27;20058;-85
2023/06/28 02:41:49;;;;;;;2.80;2.60;;;13.40;99.90;;;;;;5126543;27;20070;-86
2023/06/28 02:44:15;;;;;;;2.80;2.60;;;13.40;99.90;;;;;;5104430;27;20039;-85
2023/06/28 02:46:40;;;;;;;2.80;2.60;;;13.50;99.90;;;;;;5134823;27;20135;-85
2023/06/28 02:49:06;;;;;;;2.60;2.50;;;13.60;99.90;;;;;;5123994;27;20043;-85
2023/06/28 02:51:32;;;;;;;2.63;2.53;;;13.60;99.90;;;;;;5113607;27;20050;-86
2023/06/28 02:53:58;;;;;;;2.80;2.60;;;13.60;99.90;;;;;;5126992;27;22279;-86
2023/06/28 02:56:23;;;;;;;3.10;2.90;;;13.60;99.90;;;;;;5125689;27;20404;-87
2023/06/28 02:58:49;;;;;;;0.40;0.40;;;13.60;99.90;;;;;;5134517;27;20054;-87
2023/06/28 03:01:15;;;;;;;2.90;2.70;;;13.70;99.90;;;;;;5132926;27;20173;-85
2023/06/28 03:03:41;;;;;;;3.00;2.80;;;13.70;99.90;;;;;;5124249;27;20130;-86
2023/06/28 03:06:07;;;;;;;3.00;2.80;;;13.70;99.90;;;;;;5129377;27;20147;-87
2023/06/28 03:08:33;;;;;;;3.10;2.90;;;13.70;99.90;;;;;;5127641;27;20160;-87
2023/06/28 03:10:59;;;;;;;3.08;2.88;;;13.70;99.90;;;;;;5130360;27;20046;-87
2023/06/28 03:13:25;;;;;;;3.13;2.92;;;13.70;99.90;;;;;;5114118;27;20054;-86
2023/06/28 03:15:50;;;;;;;2.95;2.75;;;13.70;99.90;;;;;;5129492;27;20047;-88
2023/06/28 03:18:16;;;;;;;3.10;2.90;;;13.80;99.90;;;;;;5112305;27;20050;-86
2023/06/28 03:20:42;;;;;;;3.10;2.90;;;13.90;99.90;;;;;;5112916;27;20038;-86
2023/06/28 03:23:08;;;;;;;3.03;2.83;;;13.90;99.90;;;;;;5128978;27;20035;-86
2023/06/28 03:25:34;;;;;;;3.10;2.90;;;13.80;99.90;;;;;;5111649;27;20073;-85
2023/06/28 03:28:00;;;;;;;3.13;2.92;;;13.90;99.90;;;;;;5106984;27;20064;-88
2023/06/28 03:30:26;;;;;;;3.35;3.15;;;13.90;99.90;;;;;;5124772;27;20047;-87
2023/06/28 03:32:52;;;;;;;3.08;2.88;;;13.90;99.90;;;;;;5125301;27;20038;-85
2023/06/28 03:35:18;;;;;;;3.15;2.95;;;14.00;99.90;;;;;;5128414;27;20039;-88
2023/06/28 03:37:53;;;;;;;2.97;2.78;;;13.90;99.90;;;;;;5123936;27;20043;-85
2023/06/28 03:40:20;;;;;;;3.08;2.88;;;13.90;99.90;;;;;;5118568;27;20441;-86
2023/06/28 03:42:47;;;;;;;3.08;2.88;;;13.90;99.90;;;;;;5130780;27;20043;-86
2023/06/28 03:45:16;;;;;;;3.10;2.90;;;13.90;99.90;;;;;;5127548;27;20044;-85
2023/06/28 03:47:43;;;;;;;3.03;2.83;;;13.90;99.90;;;;;;5128953;27;20659;-86
2023/06/28 03:50:09;;;;;;;3.13;2.92;;;13.90;99.90;;;;;;5133980;27;20036;-85
2023/06/28 03:52:35;;;;;;;2.90;2.70;;;14.00;99.90;;;;;;5122695;27;20074;-87
2023/06/28 03:55:02;;;;;;;2.80;2.63;;;14.00;99.90;;;;;;5114800;27;20035;-86
2023/06/28 03:57:29;;;;;;;2.95;2.75;;;14.00;99.90;;;;;;5125502;27;20483;-87
2023/06/28 03:59:55;;;;;;;2.85;2.65;;;14.10;99.90;;;;;;5123362;27;20051;-85
2023/06/28 04:02:21;;;;;;;2.60;2.50;;;14.10;99.90;;;;;;5112791;27;20055;-86
2023/06/28 04:04:47;;;;;;;2.75;2.58;;;14.10;99.90;;;;;;5110268;27;20046;-86
2023/06/28 04:07:13;;;;;;;2.55;2.45;;;14.10;99.90;;;;;;5111781;27;20038;-86
2023/06/28 04:09:39;;;;;;;2.63;2.50;;;14.20;99.90;;;;;;5108769;27;20043;-86
2023/06/28 04:12:05;;;;;;;2.63;2.50;;;14.20;99.90;;;;;;5129466;27;20458;-86
2023/06/28 04:14:31;;;;;;;2.60;2.47;;;14.30;99.90;;;;;;5111113;27;20057;-85
2023/06/28 04:16:57;;;;;;;2.50;2.40;;;14.30;99.90;;;;;;5119882;27;20043;-86
2023/06/28 04:19:22;;;;;;;2.45;2.35;;;14.30;99.90;;;;;;5121387;27;20095;-86
2023/06/28 04:21:48;;;;;;;2.55;2.45;;;14.30;99.90;;;;;;5111688;27;20130;-86
2023/06/28 04:24:14;;;;;;;2.55;2.45;;;14.40;99.90;;;;;;5128009;27;20126;-85
2023/06/28 04:26:39;;;;;;;2.50;2.40;;;14.40;99.90;;;;;;5125558;27;20075;-84
2023/06/28 04:29:05;;;;;;;2.40;2.30;;;14.40;99.90;;;;;;5131640;27;20034;-85
2023/06/28 04:31:31;;;;;;;2.50;2.40;;;14.60;99.90;;;;;;5107836;27;20047;-85
2023/06/28 04:33:57;;;;;;;2.45;2.35;;;14.60;99.90;;;;;;5109744;27;20039;-85
2023/06/28 04:36:25;;;;;;;2.58;2.47;;;14.60;99.90;;;;;;5124778;27;20125;-85
2023/06/28 04:38:52;;;;;;;2.40;2.30;;;14.70;99.90;;;;;;5121252;27;20104;-84
2023/06/28 04:41:27;;;;;;;2.47;2.38;;;14.80;99.90;;;;;;5127306;27;20058;-86
2023/06/28 04:43:55;;;;;;;2.28;2.17;;;14.80;99.90;;;;;;5119026;27;20404;-86
2023/06/28 04:46:27;;;;;;;2.47;2.38;;;14.90;99.90;;;;;;5111301;27;20099;-85
2023/06/28 04:48:54;;;;;;;2.40;2.30;;;14.90;99.90;;;;;;5123074;27;20049;-85
2023/06/28 04:51:20;;;;;;;2.30;2.20;;;14.90;99.90;;;;;;5120819;27;20062;-85
2023/06/28 04:53:50;;;;;;;2.30;2.20;;;14.90;99.90;;;;;;5129727;27;20076;-86
2023/06/28 04:56:16;;;;;;;2.28;2.17;;;15.00;99.90;;;;;;5117864;27;20405;-85
2023/06/28 04:58:42;;;;;;;2.15;2.05;;;15.00;99.90;;;;;;5119388;27;20103;-85
2023/06/28 05:01:08;;;;;;;2.15;2.05;;;15.10;99.90;;;;;;5118977;27;20051;-86
2023/06/28 05:03:35;;;;;;;2.20;2.10;;;15.20;99.90;;;;;;5119794;27;20470;-87
2023/06/28 05:06:02;;;;;;;2.22;2.13;;;15.20;99.90;;;;;;5114397;27;21792;-86
2023/06/28 05:08:28;;;;;;;2.20;2.10;;;15.20;99.90;;;;;;5118102;27;20123;-87
2023/06/28 05:10:54;;;;;;;2.15;2.05;;;15.20;99.90;;;;;;5118872;27;20523;-85
2023/06/28 05:13:21;;;;;;;2.13;2.03;;;15.30;99.90;;;;;;5105561;27;20535;-85
2023/06/28 05:15:47;;;;;;;2.22;2.13;;;15.40;99.90;;;;;;5107455;27;20128;-87
2023/06/28 05:18:12;;;;;;;2.22;2.13;;;15.30;99.90;;;;;;5125770;27;20143;-85
2023/06/28 05:20:38;;;;;;;2.17;2.08;;;15.30;99.90;;;;;;5121668;27;20164;-85
2023/06/28 05:23:18;;;;;;;2.13;2.03;;;15.30;99.90;;;;;;5122257;27;20103;-85
2023/06/28 05:25:44;;;;;;;2.15;2.05;;;15.40;99.90;;;;;;5124959;27;20068;-84
2023/06/28 05:28:12;;;;;;;2.20;2.10;;;15.40;99.90;;;;;;5114138;27;20058;-84
2023/06/28 05:30:39;;;;;;;2.20;2.10;;;15.50;99.90;;;;;;5111917;27;20043;-84
2023/06/28 05:33:04;;;;;;;2.15;2.05;;;15.50;99.90;;;;;;5112133;27;20051;-86
2023/06/28 05:35:31;;;;;;;2.13;2.03;;;15.50;99.90;;;;;;5119991;27;20043;-84
2023/06/28 05:37:57;;;;;;;2.13;2.03;;;15.50;99.90;;;;;;5116806;27;20063;-84
2023/06/28 05:40:23;;;;;;;2.15;2.05;;;15.50;99.90;;;;;;5117953;27;20055;-85
2023/06/28 05:42:48;;;;;;;2.05;1.95;;;15.50;99.90;;;;;;5113966;27;20105;-85
2023/06/28 05:45:14;;;;;;;2.15;2.05;;;15.60;99.90;;;;;;5115274;27;20054;-86
2023/06/28 05:47:40;;;;;;;2.15;2.05;;;15.60;99.90;;;;;;5114443;27;20058;-83
2023/06/28 05:50:06;;;;;;;2.08;1.98;;;15.70;99.90;;;;;;5115850;27;20403;-85
2023/06/28 05:52:31;;;;;;;2.17;2.08;;;15.70;99.90;;;;;;5102589;27;20180;-86
2023/06/28 05:54:57;;;;;;;2.08;1.98;;;15.80;99.90;;;;;;5121919;27;20130;-85
2023/06/28 05:57:23;;;;;;;2.13;2.03;;;15.80;99.90;;;;;;5106475;27;20046;-85
2023/06/28 05:59:49;;;;;;;1.98;1.88;;;15.80;99.90;;;;;;5112487;27;20655;-85
2023/06/28 06:02:14;;;;;;;1.85;1.75;;;15.90;99.90;;;;;;5124875;27;20068;-86
2023/06/28 06:04:40;;;;;;;1.98;1.88;;;15.90;99.90;;;;;;5126051;27;20169;-86
2023/06/28 06:07:06;;;;;;;1.88;1.77;;;15.90;99.90;;;;;;5120922;27;20126;-86
2023/06/28 06:09:32;;;;;;;1.88;1.77;;;16.10;99.90;;;;;;5131671;27;20047;-85
2023/06/28 06:11:58;;;;;;;1.83;1.73;;;16.10;99.90;;;;;;5124833;27;20047;-86
2023/06/28 06:14:24;;;;;;;1.85;1.75;;;16.30;99.90;;;;;;5125702;27;20047;-84
2023/06/28 06:16:49;;;;;;;1.77;1.67;;;16.30;99.90;;;;;;5124367;27;20047;-84
2023/06/28 06:19:15;;;;;;;1.80;1.70;;;16.40;99.90;;;;;;5125921;27;20035;-86
2023/06/28 06:21:40;;;;;;;1.80;1.70;;;16.30;99.90;;;;;;5124527;27;20082;-83
2023/06/28 06:24:09;;;;;;;1.70;1.60;;;16.50;99.90;;;;;;5123933;27;20046;-86
2023/06/28 06:26:35;;;;;;;1.80;1.70;;;16.60;99.90;;;;;;5122386;27;20095;-84
2023/06/28 06:29:01;;;;;;;1.60;1.50;;;16.70;99.90;;;;;;5108321;27;20055;-83
2023/06/28 06:31:28;;;;;;;1.65;1.55;;;16.70;99.90;;;;;;5131085;27;20542;-84
2023/06/28 06:33:56;;;;;;;1.67;1.58;;;16.70;99.90;;;;;;5131370;27;20045;-84
2023/06/28 06:36:22;;;;;;;1.65;1.55;;;16.70;99.90;;;;;;5128439;27;20058;-86
2023/06/28 06:38:48;;;;;;;1.50;1.40;;;16.80;99.90;;;;;;5126992;27;20043;-86
2023/06/28 06:41:13;;;;;;;1.60;1.50;;;16.90;99.90;;;;;;5123990;27;20083;-88
2023/06/28 06:43:39;;;;;;;1.58;1.48;;;16.90;99.90;;;;;;5129170;27;20397;-83
2023/06/28 06:46:05;;;;;;;1.30;1.30;;;16.90;99.90;;;;;;5133172;27;20393;-87
2023/06/28 06:48:30;;;;;;;1.30;1.30;;;16.80;99.90;;;;;;5133585;27;20046;-86
2023/06/28 06:50:57;;;;;;;1.40;1.40;;;16.70;99.90;;;;;;5134835;27;20051;-85
2023/06/28 06:53:23;;;;;;;1.30;1.30;;;16.80;99.90;;;;;;5125373;27;20047;-85
2023/06/28 06:55:48;;;;;;;1.30;1.30;;;16.70;99.90;;;;;;5128956;27;20054;-85
2023/06/28 06:58:14;;;;;;;1.20;1.20;;;16.60;99.90;;;;;;5127998;27;20043;-86
2023/06/28 07:00:40;;;;;;;1.20;1.20;;;16.50;99.90;;;;;;5127412;27;20046;-85
2023/06/28 07:03:05;;;;;;;1.15;1.15;;;16.50;99.90;;;;;;5126630;27;20049;-85
2023/06/28 07:05:31;;;;;;;1.20;1.20;;;16.50;99.90;;;;;;5134734;27;20507;-84
2023/06/28 07:07:56;;;;;;;1.20;1.20;;;16.50;99.90;;;;;;5126159;27;20051;-86
2023/06/28 07:10:22;;;;;;;1.10;1.10;;;16.40;99.90;;;;;;5110673;27;20051;-86
2023/06/28 07:12:48;;;;;;;1.00;1.00;;;16.40;99.90;;;;;;5113014;27;20042;-85
2023/06/28 07:15:13;;;;;;;1.00;1.00;;;16.40;99.90;;;;;;5107305;27;20111;-84
2023/06/28 07:17:39;;;;;;;1.00;1.00;;;16.50;99.90;;;;;;5132432;27;20046;-83
2023/06/28 07:20:06;;;;;;;0.98;0.98;;;16.50;99.90;;;;;;5133512;27;20047;-84
2023/06/28 07:22:31;;;;;;;0.90;0.90;;;16.50;99.90;;;;;;5125441;27;20833;-83
2023/06/28 07:24:57;;;;;;;0.90;0.90;;;16.60;99.90;;;;;;5111898;27;20050;-83
2023/06/28 07:27:23;;;;;;;0.90;0.90;;;16.60;99.90;;;;;;5123272;27;20054;-83
2023/06/28 07:29:48;;;;;;;1.00;1.00;;;16.70;99.90;;;;;;5130512;27;20087;-83
2023/06/28 07:32:14;;;;;;;0.80;0.80;;;16.70;99.90;;;;;;5109436;27;20579;-85
2023/06/28 07:34:40;;;;;;;0.80;0.80;;;16.70;99.90;;;;;;5106363;27;20043;-83
2023/06/28 07:37:06;;;;;;;0.80;0.80;;;16.70;99.90;;;;;;5122419;27;20051;-85
2023/06/28 07:39:32;;;;;;;0.88;0.88;;;16.60;99.90;;;;;;5127452;27;20046;-85
2023/06/28 07:41:58;;;;;;;0.80;0.80;;;16.60;99.90;;;;;;5130165;27;20050;-83
2023/06/28 07:44:23;;;;;;;0.80;0.80;;;16.50;99.90;;;;;;5129727;27;20054;-84
2023/06/28 07:46:49;;;;;;;0.85;0.85;;;16.50;99.90;;;;;;5126631;27;20039;-86
2023/06/28 07:49:15;;;;;;;0.82;0.82;;;16.40;99.90;;;;;;5116317;27;20035;-86
2023/06/28 07:51:41;;;;;;;0.80;0.80;;;16.40;99.90;;;;;;5133188;27;20061;-83
2023/06/28 07:54:06;;;;;;;0.90;0.90;;;16.50;99.90;;;;;;5126349;27;20495;-85
2023/06/28 07:56:32;;;;;;;0.90;0.90;;;16.50;99.90;;;;;;5134186;27;20051;-87
2023/06/28 07:59:01;;;;;;;1.00;1.00;;;16.50;99.90;;;;;;5130305;27;20043;-89
2023/06/28 08:01:26;;;;;;;0.90;0.90;;;16.50;99.90;;;;;;5116428;27;20686;-87
2023/06/28 08:03:52;;;;;;;0.90;0.90;;;16.50;99.90;;;;;;5124716;27;20049;-87
2023/06/28 08:06:18;;;;;;;0.90;0.90;;;16.70;99.90;;;;;;5124117;27;21117;-93
2023/06/28 08:08:46;;;;;;;0.85;0.85;;;16.90;99.90;;;;;;5106429;27;20378;-91
2023/06/28 08:11:12;;;;;;;0.90;0.90;;;16.90;99.90;;;;;;5115774;27;20552;-94
2023/06/28 08:13:38;;;;;;;0.90;0.90;;;16.70;99.90;;;;;;5113892;27;20070;-90
2023/06/28 08:16:04;;;;;;;1.00;1.00;;;16.70;99.90;;;;;;5131647;27;20050;-89
2023/06/28 08:18:30;;;;;;;0.93;0.93;;;16.80;99.90;;;;;;5132185;27;20051;-92
2023/06/28 08:20:56;;;;;;;1.00;1.00;;;16.80;99.90;;;;;;5114218;27;20521;-92
2023/06/28 08:23:21;;;;;;;0.90;0.90;;;16.80;99.90;;;;;;5115461;27;20058;-91
2023/06/28 08:25:47;;;;;;;1.02;1.02;;;16.80;99.90;;;;;;5114569;27;20040;-89
2023/06/28 08:28:13;;;;;;;0.95;0.95;;;16.90;99.90;;;;;;5116209;27;20380;-91
2023/06/28 08:30:39;;;;;;;1.00;1.00;;;17.00;99.90;;;;;;5115318;27;20090;-95
2023/06/28 08:33:05;;;;;;;1.10;1.10;;;17.20;99.90;;;;;;5133790;27;20049;-92
2023/06/28 08:35:31;;;;;;;1.00;1.00;;;17.10;99.90;;;;;;5115863;27;20047;-90
2023/06/28 08:37:56;;;;;;;1.10;1.10;;;17.20;99.90;;;;;;5133232;27;20384;-92
2023/06/28 08:40:32;;;;;;;1.10;1.10;;;17.10;99.90;;;;;;5120010;27;20054;-94
2023/06/28 08:43:01;;;;;;;1.10;1.10;;;17.20;99.90;;;;;;5117523;27;20035;-89
2023/06/28 08:45:27;;;;;;;1.10;1.10;;;17.20;99.90;;;;;;5115879;27;20050;-89
2023/06/28 08:48:01;;;;;;;1.20;1.20;;;17.20;99.90;;;;;;5134164;27;20043;-95
2023/06/28 08:50:28;;;;;;;1.20;1.20;;;17.20;99.90;;;;;;5132467;27;20046;-92
2023/06/28 08:52:53;;;;;;;1.20;1.20;;;17.20;99.90;;;;;;5139765;27;20057;-89
2023/06/28 08:55:20;;;;;;;1.20;1.20;;;17.20;99.90;;;;;;5139145;27;20038;-89
2023/06/28 08:57:47;;;;;;;1.20;1.20;;;17.30;99.90;;;;;;5156903;27;20368;-94
2023/06/28 09:00:13;;;;;;;1.30;1.30;;;17.30;99.90;;;;;;5138238;27;20143;-84
2023/06/28 09:02:42;;;;;;;1.30;1.30;;;17.50;99.90;;;;;;5154706;27;20087;-89
2023/06/28 09:05:09;;;;;;;1.30;1.30;;;17.70;99.90;;;;;;5156421;27;20042;-89
2023/06/28 09:07:39;;;;;;;1.40;1.35;;;17.70;99.90;;;;;;5139238;27;20110;-90
2023/06/28 09:13:30;;;;;;;1.55;1.45;;;18.00;99.90;;;;;;5176987;27;20061;-93
2023/06/28 09:15:56;;;;;;;1.50;1.40;;;18.10;99.90;;;;;;5159447;27;20046;-89
2023/06/28 09:18:22;;;;;;;1.60;1.50;;;17.90;99.90;;;;;;5140920;27;20043;-90
2023/06/28 09:20:54;;;;;;;1.63;1.52;;;18.00;99.90;;;;;;5135809;27;20483;-87
2023/06/28 09:23:29;;;;;;;1.60;1.50;;;18.10;99.90;;;;;;5149777;27;20410;-91
2023/06/28 09:25:56;;;;;;;1.80;1.70;;;18.00;99.90;;;;;;5139224;27;20126;-88
2023/06/28 09:28:28;;;;;;;1.65;1.55;;;17.90;99.90;;;;;;5154961;27;20054;-94
2023/06/28 09:30:57;;;;;;;1.80;1.70;;;17.80;99.90;;;;;;5137537;27;20042;-94
2023/06/28 09:33:23;;;;;;;1.77;1.67;;;17.80;99.90;;;;;;5136885;27;20042;-87
2023/06/28 09:35:57;;;;;;;1.73;1.63;;;17.80;99.90;;;;;;5146259;27;20038;-88
2023/06/28 09:38:23;;;;;;;1.95;1.85;;;17.90;99.90;;;;;;5136429;27;20080;-89
2023/06/28 09:40:54;;;;;;;1.70;1.60;;;17.90;99.90;;;;;;5139927;27;20042;-93
2023/06/28 09:43:28;;;;;;;1.75;1.65;;;17.80;99.90;;;;;;5137532;27;21470;-95
2023/06/28 09:45:54;;;;;;;;;;;17.90;99.90;;;;;;5140401;27;20041;-93
2023/06/28 09:48:26;;;;;;;1.70;1.60;;;17.80;99.90;;;;;;5141249;27;19926;-91
2023/06/28 09:50:52;;;;;;;1.70;1.60;;;17.90;99.90;;;;;;5132270;27;20043;-88
2023/06/28 09:53:19;;;;;;;1.88;1.77;;;17.90;99.90;;;;;;5152866;27;20552;-89
2023/06/28 09:55:46;;;;;;;1.77;1.67;;;17.80;99.90;;;;;;5152305;27;20035;-89
2023/06/28 09:58:18;;;;;;;1.77;1.67;;;17.80;99.90;;;;;;5158269;27;20041;-88
2023/06/28 10:00:48;;;;;;;1.75;1.65;;;18.00;99.90;;;;;;5141699;27;20051;-92
2023/06/28 10:03:20;;;;;;;1.83;1.73;;;17.80;99.90;;;;;;5157904;27;20613;-89
2023/06/28 10:05:45;;;;;;;1.75;1.65;;;17.80;99.90;;;;;;5153965;27;20042;-90
2023/06/28 10:08:16;;;;;;;1.75;1.65;;;17.90;99.90;;;;;;5151860;27;20231;-87
2023/06/28 10:10:44;;;;;;;1.77;1.67;;;17.90;99.90;;;;;;5130143;27;20077;-92
2023/06/28 10:13:19;;;;;;;1.73;1.63;;;17.80;99.90;;;;;;5138541;27;20058;-89
2023/06/28 10:16:16;;;;;;;1.75;1.65;;;17.80;99.90;;;;;;5135762;27;20444;-93
2023/06/28 10:18:43;;;;;;;1.85;1.75;;;17.70;99.90;;;;;;5138919;27;20050;-92
2023/06/28 10:21:09;;;;;;;1.80;1.70;;;17.80;99.90;;;;;;5133410;27;20490;-87
2023/06/28 10:23:38;;;;;;;1.75;1.65;;;17.90;99.90;;;;;;5152856;27;20217;-93
2023/06/28 10:26:05;;;;;;;1.65;1.55;;;18.00;99.90;;;;;;5143578;27;20037;-86
2023/06/28 10:28:35;;;;;;;1.77;1.67;;;18.00;99.90;;;;;;5163596;27;20043;-89
2023/06/28 10:31:03;;;;;;;1.75;1.65;;;18.00;99.90;;;;;;5160507;27;20041;-88
2023/06/28 10:33:33;;;;;;;1.73;1.63;;;18.10;99.90;;;;;;5152826;27;20050;-87
2023/06/28 10:36:00;;;;;;;1.75;1.65;;;18.10;99.90;;;;;;5140293;27;20536;-88
2023/06/28 10:38:44;;;;;;;1.85;1.75;;;18.20;99.90;;;;;;5137101;27;20056;-89
2023/06/28 10:41:14;;;;;;;1.73;1.63;;;18.30;99.90;;;;;;5156093;27;20077;-86
2023/06/28 10:43:40;;;;;;;1.70;1.60;;;18.50;99.90;;;;;;5140274;27;20065;-88
2023/06/28 10:46:22;;;;;;;1.70;1.60;;;18.30;99.90;;;;;;5158765;27;20121;-86
2023/06/28 10:48:48;;;;;;;1.60;1.50;;;18.30;99.90;;;;;;5156335;27;20406;-86
2023/06/28 10:51:14;;;;;;;1.70;1.60;;;18.20;99.90;;;;;;5154761;27;20039;-88
2023/06/28 10:53:56;;;;;;;1.77;1.67;;;18.10;99.90;;;;;;5150792;27;20084;-88
2023/06/28 10:56:22;;;;;;;1.65;1.55;;;18.20;99.90;;;;;;5153622;27;20081;-88
2023/06/28 10:58:54;;;;;;;1.70;1.60;;;18.10;99.90;;;;;;5157053;27;20074;-86
2023/06/28 11:01:49;;;;;;;1.63;1.52;;;18.20;99.90;;;;;;5151876;27;20078;-90
2023/06/28 11:04:16;;;;;;;1.83;1.73;;;18.20;99.90;;;;;;5132820;27;20077;-88
2023/06/28 11:06:42;;;;;;;1.77;1.67;;;18.30;99.90;;;;;;5153052;27;20175;-87
2023/06/28 11:09:16;;;;;;;1.75;1.65;;;18.30;99.90;;;;;;5159199;27;20132;-87
2023/06/28 11:11:56;;;;;;;1.85;1.75;;;18.30;99.90;;;;;;5160579;27;20049;-88
2023/06/28 11:14:30;;;;;;;1.90;1.80;;;18.50;99.90;;;;;;5135347;27;20049;-89
2023/06/28 11:17:11;;;;;;;2.10;2.00;;;18.50;99.90;;;;;;5146951;27;20114;-90
2023/06/28 11:19:39;;;;;;;2.05;1.95;;;18.40;99.90;;;;;;5136994;27;20041;-88
2023/06/28 11:22:05;;;;;;;2.20;2.10;;;18.40;99.90;;;;;;5145895;27;20053;-87
2023/06/28 11:24:33;;;;;;;2.30;2.20;;;18.40;99.90;;;;;;5159496;27;20039;-88
2023/06/28 11:27:00;;;;;;;2.10;2.00;;;18.50;99.90;;;;;;5160408;27;20479;-91
2023/06/28 11:29:26;;;;;;;2.20;2.10;;;18.40;99.90;;;;;;5160338;27;20072;-87
2023/06/28 11:31:55;;;;;;;2.08;1.98;;;18.50;99.90;;;;;;5153272;27;20049;-86
2023/06/28 11:34:21;;;;;;;2.10;2.00;;;18.40;99.90;;;;;;5149957;27;20081;-86
2023/06/28 11:36:51;;;;;;;2.05;1.95;;;18.50;99.90;;;;;;5133918;27;20130;-85
2023/06/28 11:39:18;;;;;;;2.00;1.90;;;18.40;99.90;;;;;;5132891;27;20265;-85
2023/06/28 11:41:44;;;;;;;2.00;1.90;;;18.60;99.90;;;;;;5149722;27;20117;-88
2023/06/28 11:44:13;;;;;;;2.10;2.00;;;18.50;99.90;;;;;;5152214;27;20095;-87
2023/06/28 11:46:41;;;;;;;1.90;1.80;;;18.70;99.90;;;;;;5153198;27;20445;-84
2023/06/28 11:49:07;;;;;;;1.75;1.65;;;18.70;99.90;;;;;;5146564;27;20058;-88
2023/06/28 11:51:34;;;;;;;1.88;1.77;;;18.60;99.90;;;;;;5149003;27;20072;-86
2023/06/28 11:54:00;;;;;;;1.85;1.75;;;18.60;99.90;;;;;;5148702;27;20212;-83
2023/06/28 11:56:38;;;;;;;1.83;1.73;;;18.60;99.90;;;;;;5154795;27;20049;-88
2023/06/28 11:59:21;;;;;;;1.65;1.55;;;18.70;99.90;;;;;;5128653;27;20043;-85
2023/06/28 12:01:59;;;;;;;1.70;1.60;;;18.70;99.90;;;;;;5153907;27;20046;-85
2023/06/28 12:04:25;;;;;;;1.70;1.60;;;18.70;99.90;;;;;;5149888;27;20055;-86
2023/06/28 12:06:52;;;;;;;1.70;1.60;;;18.80;99.90;;;;;;5153826;27;20079;-86
2023/06/28 12:09:24;;;;;;;1.60;1.50;;;18.90;99.90;;;;;;5137928;27;20134;-85
2023/06/28 12:11:58;;;;;;;1.70;1.60;;;18.90;99.90;;;;;;5152611;27;20107;-87
2023/06/28 12:14:28;;;;;;;1.63;1.52;;;19.10;99.90;;;;;;5155362;27;20124;-87
2023/06/28 12:16:55;;;;;;;1.67;1.58;;;19.20;99.90;;;;;;5152746;27;20050;-84
2023/06/28 12:19:28;;;;;;;1.63;1.52;;;19.40;99.90;;;;;;5152324;27;20418;-84
2023/06/28 12:21:56;;;;;;;1.63;1.52;;;19.40;99.90;;;;;;5150083;27;20042;-87
2023/06/28 12:24:26;;;;;;;1.60;1.50;;;19.40;99.90;;;;;;5128020;27;20423;-87
2023/06/28 12:26:56;;;;;;;1.60;1.50;;;19.20;99.90;;;;;;5151777;27;20053;-86
2023/06/28 12:29:25;;;;;;;1.50;1.40;;;19.40;99.90;;;;;;5155753;27;20053;-87
2023/06/28 12:31:54;;;;;;;1.60;1.50;;;19.50;99.90;;;;;;5153707;27;20062;-86
2023/06/28 12:34:28;;;;;;;1.65;1.55;;;19.50;99.90;;;;;;5141897;27;20042;-86
2023/06/28 12:36:55;;;;;;;;;;;19.80;99.90;;;;;;5127799;27;20157;-85
2023/06/28 12:39:25;;;;;;;1.33;1.33;;;19.80;99.90;;;;;;5144264;27;19954;-85
2023/06/28 12:42:08;;;;;;;1.67;1.58;;;19.60;99.90;;;;;;5140972;27;20043;-87
2023/06/28 12:44:50;;;;;;;1.50;1.40;;;19.70;99.90;;;;;;5147518;27;20489;-86
2023/06/28 12:47:24;;;;;;;1.30;1.30;;;19.60;99.90;;;;;;5127787;27;20056;-87
2023/06/28 12:49:51;;;;;;;;;;;19.50;99.90;;;;;;5122145;27;20200;-85
2023/06/28 12:52:17;;;;;;;1.25;1.25;;;19.50;99.90;;;;;;5122394;27;20175;-87